sensor_id;sensor_type;location;lat;lon;timestamp;P1;durP1;ratioP1;P2;durP2;ratioP2
23181;SDS011;11759;51.282;6.642;2023-12-20T00:02:19;18.88;;;5.97;;
23181;SDS011;11759;51.282;6.642;2023-12-20T00:04:46;24.60;;;7.05;;
23181;SDS011;11759;51.282;6.642;2023-12-20T00:07:13;24.95;;;6.88;;
23181;SDS011;11759;51.282;6.642;2023-12-20T00:09:40;27.10;;;6.40;;
23181;SDS011;11759;51.282;6.642;2023-12-20T00:12:08;21.10;;;6.30;;
23181;SDS011;11759;51.282;6.642;2023-12-20T00:14:36;20.00;;;6.35;;
23181;SDS011;11759;51.282;6.642;2023-12-20T00:17:03;19.50;;;6.82;;
23181;SDS011;11759;51.282;6.642;2023-12-20T00:19:30;28.40;;;6.70;;
23181;SDS011;11759;51.282;6.642;2023-12-20T00:21:57;25.55;;;6.85;;
23181;SDS011;11759;51.282;6.642;2023-12-20T00:24:26;29.67;;;7.57;;
23181;SDS011;11759;51.282;6.642;2023-12-20T00:26:53;21.58;;;6.65;;
23181;SDS011;11759;51.282;6.642;2023-12-20T00:29:20;27.17;;;7.65;;
23181;SDS011;11759;51.282;6.642;2023-12-20T00:31:47;33.83;;;9.20;;
23181;SDS011;11759;51.282;6.642;2023-12-20T00:34:14;28.40;;;8.25;;
23181;SDS011;11759;51.282;6.642;2023-12-20T00:36:41;34.58;;;8.98;;
23181;SDS011;11759;51.282;6.642;2023-12-20T00:39:22;36.67;;;9.38;;
23181;SDS011;11759;51.282;6.642;2023-12-20T00:41:50;30.35;;;9.23;;
23181;SDS011;11759;51.282;6.642;2023-12-20T00:44:17;40.97;;;10.40;;
23181;SDS011;11759;51.282;6.642;2023-12-20T00:46:43;35.70;;;11.50;;
23181;SDS011;11759;51.282;6.642;2023-12-20T00:49:10;38.60;;;9.98;;
23181;SDS011;11759;51.282;6.642;2023-12-20T00:51:37;43.25;;;12.30;;
23181;SDS011;11759;51.282;6.642;2023-12-20T00:54:04;46.88;;;13.57;;
23181;SDS011;11759;51.282;6.642;2023-12-20T00:56:31;50.25;;;14.02;;
23181;SDS011;11759;51.282;6.642;2023-12-20T00:58:58;45.03;;;13.80;;
23181;SDS011;11759;51.282;6.642;2023-12-20T01:01:24;49.58;;;16.33;;
23181;SDS011;11759;51.282;6.642;2023-12-20T01:03:51;58.85;;;17.58;;
23181;SDS011;11759;51.282;6.642;2023-12-20T01:06:19;52.90;;;17.35;;
23181;SDS011;11759;51.282;6.642;2023-12-20T01:08:46;58.65;;;18.85;;
23181;SDS011;11759;51.282;6.642;2023-12-20T01:11:13;60.97;;;18.58;;
23181;SDS011;11759;51.282;6.642;2023-12-20T01:13:40;72.13;;;20.80;;
23181;SDS011;11759;51.282;6.642;2023-12-20T01:16:10;65.93;;;23.38;;
23181;SDS011;11759;51.282;6.642;2023-12-20T01:18:37;60.28;;;20.90;;
23181;SDS011;11759;51.282;6.642;2023-12-20T01:21:06;64.32;;;22.10;;
23181;SDS011;11759;51.282;6.642;2023-12-20T01:23:33;76.15;;;23.67;;
23181;SDS011;11759;51.282;6.642;2023-12-20T01:26:00;75.28;;;24.55;;
23181;SDS011;11759;51.282;6.642;2023-12-20T01:28:27;76.82;;;24.70;;
23181;SDS011;11759;51.282;6.642;2023-12-20T01:30:54;57.28;;;21.27;;
23181;SDS011;11759;51.282;6.642;2023-12-20T01:33:20;74.88;;;22.02;;
23181;SDS011;11759;51.282;6.642;2023-12-20T01:35:48;67.85;;;21.98;;
23181;SDS011;11759;51.282;6.642;2023-12-20T01:38:14;64.57;;;21.52;;
23181;SDS011;11759;51.282;6.642;2023-12-20T01:40:44;81.47;;;20.75;;
23181;SDS011;11759;51.282;6.642;2023-12-20T01:43:11;72.78;;;18.50;;
23181;SDS011;11759;51.282;6.642;2023-12-20T01:45:38;66.80;;;18.30;;
23181;SDS011;11759;51.282;6.642;2023-12-20T01:48:05;69.07;;;17.85;;
23181;SDS011;11759;51.282;6.642;2023-12-20T01:50:33;69.47;;;17.88;;
23181;SDS011;11759;51.282;6.642;2023-12-20T01:53:02;54.65;;;16.17;;
23181;SDS011;11759;51.282;6.642;2023-12-20T01:55:31;61.40;;;15.90;;
23181;SDS011;11759;51.282;6.642;2023-12-20T01:57:58;50.72;;;15.38;;
23181;SDS011;11759;51.282;6.642;2023-12-20T02:00:26;54.15;;;16.85;;
23181;SDS011;11759;51.282;6.642;2023-12-20T02:02:54;59.83;;;15.52;;
23181;SDS011;11759;51.282;6.642;2023-12-20T02:05:21;54.92;;;15.07;;
23181;SDS011;11759;51.282;6.642;2023-12-20T02:07:48;52.95;;;16.17;;
23181;SDS011;11759;51.282;6.642;2023-12-20T02:10:16;66.60;;;16.38;;
23181;SDS011;11759;51.282;6.642;2023-12-20T02:12:43;61.17;;;16.30;;
23181;SDS011;11759;51.282;6.642;2023-12-20T02:15:10;62.17;;;15.93;;
23181;SDS011;11759;51.282;6.642;2023-12-20T02:17:38;50.25;;;15.52;;
23181;SDS011;11759;51.282;6.642;2023-12-20T02:20:05;58.92;;;15.35;;
23181;SDS011;11759;51.282;6.642;2023-12-20T02:22:33;58.88;;;14.70;;
23181;SDS011;11759;51.282;6.642;2023-12-20T02:24:59;60.20;;;14.82;;
23181;SDS011;11759;51.282;6.642;2023-12-20T02:27:26;44.28;;;13.13;;
23181;SDS011;11759;51.282;6.642;2023-12-20T02:29:54;42.45;;;11.30;;
23181;SDS011;11759;51.282;6.642;2023-12-20T02:32:21;41.03;;;12.27;;
23181;SDS011;11759;51.282;6.642;2023-12-20T02:34:48;41.17;;;10.90;;
23181;SDS011;11759;51.282;6.642;2023-12-20T02:37:15;48.47;;;11.23;;
23181;SDS011;11759;51.282;6.642;2023-12-20T02:39:42;34.63;;;10.73;;
23181;SDS011;11759;51.282;6.642;2023-12-20T02:42:09;32.53;;;9.68;;
23181;SDS011;11759;51.282;6.642;2023-12-20T02:44:36;37.60;;;8.70;;
23181;SDS011;11759;51.282;6.642;2023-12-20T02:47:03;49.17;;;9.57;;
23181;SDS011;11759;51.282;6.642;2023-12-20T02:49:29;40.45;;;7.97;;
23181;SDS011;11759;51.282;6.642;2023-12-20T02:51:56;36.88;;;7.53;;
23181;SDS011;11759;51.282;6.642;2023-12-20T02:54:23;32.30;;;6.43;;
23181;SDS011;11759;51.282;6.642;2023-12-20T02:56:50;31.70;;;6.53;;
23181;SDS011;11759;51.282;6.642;2023-12-20T02:59:16;35.90;;;6.28;;
23181;SDS011;11759;51.282;6.642;2023-12-20T03:01:45;37.30;;;6.28;;
23181;SDS011;11759;51.282;6.642;2023-12-20T03:04:12;22.48;;;5.47;;
23181;SDS011;11759;51.282;6.642;2023-12-20T03:06:39;31.20;;;5.50;;
23181;SDS011;11759;51.282;6.642;2023-12-20T03:09:06;30.50;;;5.40;;
23181;SDS011;11759;51.282;6.642;2023-12-20T03:11:34;40.00;;;5.68;;
23181;SDS011;11759;51.282;6.642;2023-12-20T03:14:01;33.72;;;5.53;;
23181;SDS011;11759;51.282;6.642;2023-12-20T03:16:28;36.97;;;5.68;;
23181;SDS011;11759;51.282;6.642;2023-12-20T03:18:55;37.40;;;5.57;;
23181;SDS011;11759;51.282;6.642;2023-12-20T03:21:22;32.58;;;6.65;;
23181;SDS011;11759;51.282;6.642;2023-12-20T03:23:48;32.15;;;5.70;;
23181;SDS011;11759;51.282;6.642;2023-12-20T03:26:15;33.08;;;6.25;;
23181;SDS011;11759;51.282;6.642;2023-12-20T03:28:42;37.63;;;6.15;;
23181;SDS011;11759;51.282;6.642;2023-12-20T03:31:09;53.95;;;6.40;;
23181;SDS011;11759;51.282;6.642;2023-12-20T03:33:37;27.45;;;5.68;;
23181;SDS011;11759;51.282;6.642;2023-12-20T03:36:04;33.05;;;4.85;;
23181;SDS011;11759;51.282;6.642;2023-12-20T03:38:31;33.00;;;5.18;;
23181;SDS011;11759;51.282;6.642;2023-12-20T03:40:58;24.88;;;5.18;;
23181;SDS011;11759;51.282;6.642;2023-12-20T03:43:24;36.15;;;5.72;;
23181;SDS011;11759;51.282;6.642;2023-12-20T03:45:51;25.67;;;5.65;;
23181;SDS011;11759;51.282;6.642;2023-12-20T03:48:18;23.88;;;4.95;;
23181;SDS011;11759;51.282;6.642;2023-12-20T03:50:45;28.35;;;5.03;;
23181;SDS011;11759;51.282;6.642;2023-12-20T03:53:12;44.70;;;6.35;;
23181;SDS011;11759;51.282;6.642;2023-12-20T03:55:38;26.92;;;6.07;;
23181;SDS011;11759;51.282;6.642;2023-12-20T03:58:05;32.30;;;5.82;;
23181;SDS011;11759;51.282;6.642;2023-12-20T04:00:32;40.70;;;6.70;;
23181;SDS011;11759;51.282;6.642;2023-12-20T04:02:59;32.80;;;6.40;;
23181;SDS011;11759;51.282;6.642;2023-12-20T04:05:25;30.13;;;6.07;;
23181;SDS011;11759;51.282;6.642;2023-12-20T04:07:53;40.88;;;7.05;;
23181;SDS011;11759;51.282;6.642;2023-12-20T04:10:20;43.45;;;8.25;;
23181;SDS011;11759;51.282;6.642;2023-12-20T04:12:47;34.22;;;7.88;;
23181;SDS011;11759;51.282;6.642;2023-12-20T04:15:14;44.95;;;8.32;;
23181;SDS011;11759;51.282;6.642;2023-12-20T04:17:41;29.58;;;8.10;;
23181;SDS011;11759;51.282;6.642;2023-12-20T04:20:08;34.97;;;9.77;;
23181;SDS011;11759;51.282;6.642;2023-12-20T04:22:35;41.78;;;8.43;;
23181;SDS011;11759;51.282;6.642;2023-12-20T04:25:01;41.25;;;10.75;;
23181;SDS011;11759;51.282;6.642;2023-12-20T04:27:28;48.03;;;11.38;;
23181;SDS011;11759;51.282;6.642;2023-12-20T04:29:55;42.22;;;10.38;;
23181;SDS011;11759;51.282;6.642;2023-12-20T04:32:22;46.97;;;11.13;;
23181;SDS011;11759;51.282;6.642;2023-12-20T04:34:49;50.83;;;11.40;;
23181;SDS011;11759;51.282;6.642;2023-12-20T04:37:16;41.13;;;11.98;;
23181;SDS011;11759;51.282;6.642;2023-12-20T04:39:43;43.17;;;10.55;;
23181;SDS011;11759;51.282;6.642;2023-12-20T04:42:10;53.83;;;11.85;;
23181;SDS011;11759;51.282;6.642;2023-12-20T04:44:37;56.63;;;12.73;;
23181;SDS011;11759;51.282;6.642;2023-12-20T04:47:04;53.22;;;13.13;;
23181;SDS011;11759;51.282;6.642;2023-12-20T04:49:30;36.58;;;13.32;;
23181;SDS011;11759;51.282;6.642;2023-12-20T04:51:57;51.58;;;14.05;;
23181;SDS011;11759;51.282;6.642;2023-12-20T04:54:26;61.60;;;14.43;;
23181;SDS011;11759;51.282;6.642;2023-12-20T04:56:53;56.03;;;14.05;;
23181;SDS011;11759;51.282;6.642;2023-12-20T04:59:20;47.28;;;13.10;;
23181;SDS011;11759;51.282;6.642;2023-12-20T05:01:47;60.15;;;14.43;;
23181;SDS011;11759;51.282;6.642;2023-12-20T05:04:14;49.55;;;12.45;;
23181;SDS011;11759;51.282;6.642;2023-12-20T05:06:41;50.28;;;12.13;;
23181;SDS011;11759;51.282;6.642;2023-12-20T05:09:08;64.43;;;12.40;;
23181;SDS011;11759;51.282;6.642;2023-12-20T05:11:35;70.78;;;10.82;;
23181;SDS011;11759;51.282;6.642;2023-12-20T05:14:02;47.38;;;11.55;;
23181;SDS011;11759;51.282;6.642;2023-12-20T05:16:29;54.90;;;11.07;;
23181;SDS011;11759;51.282;6.642;2023-12-20T05:18:55;45.88;;;11.32;;
23181;SDS011;11759;51.282;6.642;2023-12-20T05:21:22;51.00;;;12.55;;
23181;SDS011;11759;51.282;6.642;2023-12-20T05:23:49;47.92;;;11.25;;
23181;SDS011;11759;51.282;6.642;2023-12-20T05:26:16;44.65;;;11.10;;
23181;SDS011;11759;51.282;6.642;2023-12-20T05:28:42;42.78;;;10.52;;
23181;SDS011;11759;51.282;6.642;2023-12-20T05:31:10;49.85;;;11.05;;
23181;SDS011;11759;51.282;6.642;2023-12-20T05:33:36;58.35;;;11.10;;
23181;SDS011;11759;51.282;6.642;2023-12-20T05:36:03;40.63;;;11.30;;
23181;SDS011;11759;51.282;6.642;2023-12-20T05:38:30;43.47;;;11.32;;
23181;SDS011;11759;51.282;6.642;2023-12-20T05:40:57;37.33;;;10.45;;
23181;SDS011;11759;51.282;6.642;2023-12-20T05:43:23;45.22;;;10.95;;
23181;SDS011;11759;51.282;6.642;2023-12-20T05:45:50;51.33;;;11.20;;
23181;SDS011;11759;51.282;6.642;2023-12-20T05:48:17;54.22;;;9.80;;
23181;SDS011;11759;51.282;6.642;2023-12-20T05:50:44;57.17;;;9.35;;
23181;SDS011;11759;51.282;6.642;2023-12-20T05:53:11;47.28;;;10.40;;
23181;SDS011;11759;51.282;6.642;2023-12-20T05:55:38;48.38;;;9.95;;
23181;SDS011;11759;51.282;6.642;2023-12-20T05:58:05;66.57;;;10.15;;
23181;SDS011;11759;51.282;6.642;2023-12-20T06:00:32;58.95;;;10.23;;
23181;SDS011;11759;51.282;6.642;2023-12-20T06:02:59;60.30;;;10.07;;
23181;SDS011;11759;51.282;6.642;2023-12-20T06:05:25;58.13;;;10.63;;
23181;SDS011;11759;51.282;6.642;2023-12-20T06:07:53;41.47;;;9.65;;
23181;SDS011;11759;51.282;6.642;2023-12-20T06:10:20;50.50;;;10.93;;
23181;SDS011;11759;51.282;6.642;2023-12-20T06:12:48;38.10;;;11.55;;
23181;SDS011;11759;51.282;6.642;2023-12-20T06:15:16;52.58;;;11.32;;
23181;SDS011;11759;51.282;6.642;2023-12-20T06:17:43;37.88;;;11.45;;
23181;SDS011;11759;51.282;6.642;2023-12-20T06:20:10;43.05;;;11.15;;
23181;SDS011;11759;51.282;6.642;2023-12-20T06:22:37;38.53;;;10.25;;
23181;SDS011;11759;51.282;6.642;2023-12-20T06:25:04;38.85;;;10.82;;
23181;SDS011;11759;51.282;6.642;2023-12-20T06:27:31;47.53;;;10.45;;
23181;SDS011;11759;51.282;6.642;2023-12-20T06:29:59;48.08;;;10.27;;
23181;SDS011;11759;51.282;6.642;2023-12-20T06:32:26;37.13;;;10.70;;
23181;SDS011;11759;51.282;6.642;2023-12-20T06:34:55;40.20;;;10.05;;
23181;SDS011;11759;51.282;6.642;2023-12-20T06:37:22;57.50;;;11.23;;
23181;SDS011;11759;51.282;6.642;2023-12-20T06:39:49;43.42;;;10.63;;
23181;SDS011;11759;51.282;6.642;2023-12-20T06:42:15;42.53;;;10.80;;
23181;SDS011;11759;51.282;6.642;2023-12-20T06:44:42;39.58;;;11.00;;
23181;SDS011;11759;51.282;6.642;2023-12-20T06:47:09;42.35;;;10.07;;
23181;SDS011;11759;51.282;6.642;2023-12-20T06:49:36;51.03;;;11.25;;
23181;SDS011;11759;51.282;6.642;2023-12-20T06:52:02;36.45;;;11.35;;
23181;SDS011;11759;51.282;6.642;2023-12-20T06:54:29;51.88;;;11.30;;
23181;SDS011;11759;51.282;6.642;2023-12-20T06:56:56;43.38;;;10.80;;
23181;SDS011;11759;51.282;6.642;2023-12-20T06:59:23;48.60;;;11.25;;
23181;SDS011;11759;51.282;6.642;2023-12-20T07:01:49;61.55;;;11.65;;
23181;SDS011;11759;51.282;6.642;2023-12-20T07:04:16;49.10;;;10.70;;
23181;SDS011;11759;51.282;6.642;2023-12-20T07:06:47;45.95;;;10.25;;
23181;SDS011;11759;51.282;6.642;2023-12-20T07:09:18;43.72;;;11.10;;
23181;SDS011;11759;51.282;6.642;2023-12-20T07:11:44;57.20;;;10.88;;
23181;SDS011;11759;51.282;6.642;2023-12-20T07:14:11;48.00;;;9.82;;
23181;SDS011;11759;51.282;6.642;2023-12-20T07:16:38;37.55;;;9.15;;
23181;SDS011;11759;51.282;6.642;2023-12-20T07:19:04;50.67;;;10.82;;
23181;SDS011;11759;51.282;6.642;2023-12-20T07:21:31;45.08;;;10.95;;
23181;SDS011;11759;51.282;6.642;2023-12-20T07:23:58;46.47;;;10.20;;
23181;SDS011;11759;51.282;6.642;2023-12-20T07:26:25;45.40;;;10.27;;
23181;SDS011;11759;51.282;6.642;2023-12-20T07:28:51;45.20;;;10.85;;
23181;SDS011;11759;51.282;6.642;2023-12-20T07:31:18;40.78;;;9.95;;
23181;SDS011;11759;51.282;6.642;2023-12-20T07:33:45;51.97;;;11.65;;
23181;SDS011;11759;51.282;6.642;2023-12-20T07:36:12;46.13;;;10.40;;
23181;SDS011;11759;51.282;6.642;2023-12-20T07:38:39;34.30;;;11.65;;
23181;SDS011;11759;51.282;6.642;2023-12-20T07:41:09;42.10;;;11.13;;
23181;SDS011;11759;51.282;6.642;2023-12-20T07:43:37;49.83;;;12.45;;
23181;SDS011;11759;51.282;6.642;2023-12-20T07:46:04;54.25;;;13.32;;
23181;SDS011;11759;51.282;6.642;2023-12-20T07:48:33;57.28;;;12.02;;
23181;SDS011;11759;51.282;6.642;2023-12-20T07:51:01;49.38;;;12.27;;
23181;SDS011;11759;51.282;6.642;2023-12-20T07:53:28;64.70;;;13.07;;
23181;SDS011;11759;51.282;6.642;2023-12-20T07:55:55;69.80;;;14.05;;
23181;SDS011;11759;51.282;6.642;2023-12-20T07:58:22;57.55;;;12.43;;
23181;SDS011;11759;51.282;6.642;2023-12-20T08:01:01;61.22;;;13.18;;
23181;SDS011;11759;51.282;6.642;2023-12-20T08:03:28;56.72;;;13.27;;
23181;SDS011;11759;51.282;6.642;2023-12-20T08:05:54;57.75;;;13.27;;
23181;SDS011;11759;51.282;6.642;2023-12-20T08:08:23;45.40;;;13.65;;
23181;SDS011;11759;51.282;6.642;2023-12-20T08:10:49;55.25;;;12.65;;
23181;SDS011;11759;51.282;6.642;2023-12-20T08:13:16;49.33;;;12.20;;
23181;SDS011;11759;51.282;6.642;2023-12-20T08:15:43;50.63;;;12.77;;
23181;SDS011;11759;51.282;6.642;2023-12-20T08:18:10;49.80;;;11.95;;
23181;SDS011;11759;51.282;6.642;2023-12-20T08:20:37;43.35;;;12.35;;
23181;SDS011;11759;51.282;6.642;2023-12-20T08:23:06;49.25;;;10.90;;
23181;SDS011;11759;51.282;6.642;2023-12-20T08:25:33;41.17;;;11.20;;
23181;SDS011;11759;51.282;6.642;2023-12-20T08:28:01;46.90;;;11.18;;
23181;SDS011;11759;51.282;6.642;2023-12-20T08:30:28;44.78;;;10.57;;
23181;SDS011;11759;51.282;6.642;2023-12-20T08:32:56;35.20;;;9.90;;
23181;SDS011;11759;51.282;6.642;2023-12-20T08:35:23;40.08;;;9.82;;
23181;SDS011;11759;51.282;6.642;2023-12-20T08:37:50;45.67;;;11.93;;
23181;SDS011;11759;51.282;6.642;2023-12-20T08:40:17;43.58;;;11.60;;
23181;SDS011;11759;51.282;6.642;2023-12-20T08:42:44;48.30;;;10.90;;
23181;SDS011;11759;51.282;6.642;2023-12-20T08:45:10;40.88;;;11.25;;
23181;SDS011;11759;51.282;6.642;2023-12-20T08:47:37;35.38;;;10.07;;
23181;SDS011;11759;51.282;6.642;2023-12-20T08:50:04;42.72;;;9.82;;
23181;SDS011;11759;51.282;6.642;2023-12-20T08:52:31;32.05;;;8.82;;
23181;SDS011;11759;51.282;6.642;2023-12-20T08:54:58;34.20;;;8.27;;
23181;SDS011;11759;51.282;6.642;2023-12-20T08:57:25;37.83;;;8.30;;
23181;SDS011;11759;51.282;6.642;2023-12-20T08:59:52;34.95;;;8.80;;
23181;SDS011;11759;51.282;6.642;2023-12-20T09:02:19;38.83;;;8.23;;
23181;SDS011;11759;51.282;6.642;2023-12-20T09:04:45;48.63;;;8.38;;
23181;SDS011;11759;51.282;6.642;2023-12-20T09:07:24;46.17;;;8.02;;
23181;SDS011;11759;51.282;6.642;2023-12-20T09:09:52;28.10;;;7.43;;
23181;SDS011;11759;51.282;6.642;2023-12-20T09:12:19;25.42;;;7.13;;
23181;SDS011;11759;51.282;6.642;2023-12-20T09:14:47;41.17;;;7.85;;
23181;SDS011;11759;51.282;6.642;2023-12-20T09:17:15;32.05;;;6.72;;
23181;SDS011;11759;51.282;6.642;2023-12-20T09:19:42;32.65;;;6.57;;
23181;SDS011;11759;51.282;6.642;2023-12-20T09:22:13;38.45;;;5.70;;
23181;SDS011;11759;51.282;6.642;2023-12-20T09:24:40;32.78;;;6.47;;
23181;SDS011;11759;51.282;6.642;2023-12-20T09:27:07;32.03;;;6.18;;
23181;SDS011;11759;51.282;6.642;2023-12-20T09:29:33;29.10;;;6.00;;
23181;SDS011;11759;51.282;6.642;2023-12-20T09:32:00;27.88;;;6.18;;
23181;SDS011;11759;51.282;6.642;2023-12-20T09:34:27;39.15;;;6.00;;
23181;SDS011;11759;51.282;6.642;2023-12-20T09:36:54;40.05;;;6.30;;
23181;SDS011;11759;51.282;6.642;2023-12-20T09:39:21;40.65;;;6.75;;
23181;SDS011;11759;51.282;6.642;2023-12-20T09:41:51;31.70;;;5.85;;
23181;SDS011;11759;51.282;6.642;2023-12-20T09:44:25;24.95;;;6.55;;
23181;SDS011;11759;51.282;6.642;2023-12-20T09:46:52;25.15;;;5.82;;
23181;SDS011;11759;51.282;6.642;2023-12-20T09:49:19;21.80;;;5.10;;
23181;SDS011;11759;51.282;6.642;2023-12-20T09:51:47;30.88;;;5.15;;
23181;SDS011;11759;51.282;6.642;2023-12-20T09:54:14;26.17;;;5.85;;
23181;SDS011;11759;51.282;6.642;2023-12-20T09:56:41;34.22;;;7.40;;
23181;SDS011;11759;51.282;6.642;2023-12-20T09:59:11;31.42;;;5.38;;
23181;SDS011;11759;51.282;6.642;2023-12-20T10:01:38;26.23;;;5.60;;
23181;SDS011;11759;51.282;6.642;2023-12-20T10:04:06;28.23;;;5.43;;
23181;SDS011;11759;51.282;6.642;2023-12-20T10:06:39;20.98;;;4.97;;
23181;SDS011;11759;51.282;6.642;2023-12-20T10:09:07;24.65;;;5.82;;
23181;SDS011;11759;51.282;6.642;2023-12-20T10:11:38;22.75;;;5.13;;
23181;SDS011;11759;51.282;6.642;2023-12-20T10:14:06;23.73;;;6.15;;
23181;SDS011;11759;51.282;6.642;2023-12-20T10:16:33;20.25;;;4.57;;
23181;SDS011;11759;51.282;6.642;2023-12-20T10:19:00;23.30;;;5.93;;
23181;SDS011;11759;51.282;6.642;2023-12-20T10:21:27;21.63;;;5.47;;
23181;SDS011;11759;51.282;6.642;2023-12-20T10:23:55;23.05;;;5.82;;
23181;SDS011;11759;51.282;6.642;2023-12-20T10:26:23;31.67;;;4.95;;
23181;SDS011;11759;51.282;6.642;2023-12-20T10:28:52;16.48;;;4.45;;
23181;SDS011;11759;51.282;6.642;2023-12-20T10:31:33;29.83;;;4.63;;
23181;SDS011;11759;51.282;6.642;2023-12-20T10:34:00;22.98;;;5.60;;
23181;SDS011;11759;51.282;6.642;2023-12-20T10:36:29;26.10;;;5.13;;
23181;SDS011;11759;51.282;6.642;2023-12-20T10:38:57;18.52;;;4.80;;
23181;SDS011;11759;51.282;6.642;2023-12-20T10:41:25;19.70;;;4.88;;
23181;SDS011;11759;51.282;6.642;2023-12-20T10:44:03;21.67;;;4.70;;
23181;SDS011;11759;51.282;6.642;2023-12-20T10:46:33;15.93;;;4.80;;
23181;SDS011;11759;51.282;6.642;2023-12-20T10:49:03;24.98;;;4.47;;
23181;SDS011;11759;51.282;6.642;2023-12-20T10:51:31;22.23;;;4.40;;
23181;SDS011;11759;51.282;6.642;2023-12-20T10:54:01;26.73;;;5.35;;
23181;SDS011;11759;51.282;6.642;2023-12-20T10:56:28;16.23;;;4.55;;
23181;SDS011;11759;51.282;6.642;2023-12-20T10:59:00;24.40;;;4.50;;
23181;SDS011;11759;51.282;6.642;2023-12-20T11:01:29;28.42;;;4.90;;
23181;SDS011;11759;51.282;6.642;2023-12-20T11:03:56;20.17;;;4.72;;
23181;SDS011;11759;51.282;6.642;2023-12-20T11:06:26;19.15;;;4.53;;
23181;SDS011;11759;51.282;6.642;2023-12-20T11:14:15;21.33;;;5.00;;
23181;SDS011;11759;51.282;6.642;2023-12-20T11:16:45;22.13;;;4.25;;
23181;SDS011;11759;51.282;6.642;2023-12-20T11:19:20;18.58;;;4.65;;
23181;SDS011;11759;51.282;6.642;2023-12-20T11:21:47;28.83;;;4.70;;
23181;SDS011;11759;51.282;6.642;2023-12-20T11:24:15;25.88;;;4.32;;
23181;SDS011;11759;51.282;6.642;2023-12-20T11:26:46;17.95;;;4.63;;
23181;SDS011;11759;51.282;6.642;2023-12-20T11:31:59;25.08;;;4.30;;
23181;SDS011;11759;51.282;6.642;2023-12-20T11:34:27;18.67;;;4.13;;
23181;SDS011;11759;51.282;6.642;2023-12-20T11:36:56;22.45;;;4.03;;
23181;SDS011;11759;51.282;6.642;2023-12-20T11:39:27;11.52;;;3.90;;
23181;SDS011;11759;51.282;6.642;2023-12-20T11:41:55;26.45;;;4.95;;
23181;SDS011;11759;51.282;6.642;2023-12-20T11:44:25;22.25;;;4.53;;
23181;SDS011;11759;51.282;6.642;2023-12-20T11:46:52;16.23;;;4.20;;
23181;SDS011;11759;51.282;6.642;2023-12-20T11:49:22;17.45;;;4.50;;
23181;SDS011;11759;51.282;6.642;2023-12-20T11:51:50;15.27;;;4.20;;
23181;SDS011;11759;51.282;6.642;2023-12-20T11:54:18;12.77;;;4.28;;
23181;SDS011;11759;51.282;6.642;2023-12-20T11:56:45;23.58;;;4.13;;
23181;SDS011;11759;51.282;6.642;2023-12-20T11:59:12;20.73;;;3.90;;
23181;SDS011;11759;51.282;6.642;2023-12-20T12:01:49;17.08;;;4.38;;
23181;SDS011;11759;51.282;6.642;2023-12-20T12:04:21;20.02;;;3.92;;
23181;SDS011;11759;51.282;6.642;2023-12-20T12:06:48;17.83;;;4.00;;
23181;SDS011;11759;51.282;6.642;2023-12-20T12:09:15;21.42;;;4.22;;
23181;SDS011;11759;51.282;6.642;2023-12-20T12:11:43;21.02;;;4.30;;
23181;SDS011;11759;51.282;6.642;2023-12-20T12:14:10;23.83;;;4.97;;
23181;SDS011;11759;51.282;6.642;2023-12-20T12:16:37;13.13;;;4.10;;
23181;SDS011;11759;51.282;6.642;2023-12-20T12:19:04;24.70;;;5.65;;
23181;SDS011;11759;51.282;6.642;2023-12-20T12:21:31;20.52;;;4.30;;
23181;SDS011;11759;51.282;6.642;2023-12-20T12:24:06;21.42;;;4.43;;
23181;SDS011;11759;51.282;6.642;2023-12-20T12:26:33;20.95;;;4.47;;
23181;SDS011;11759;51.282;6.642;2023-12-20T12:29:00;12.60;;;4.15;;
23181;SDS011;11759;51.282;6.642;2023-12-20T12:31:27;20.83;;;5.00;;
23181;SDS011;11759;51.282;6.642;2023-12-20T12:33:54;18.42;;;4.30;;
23181;SDS011;11759;51.282;6.642;2023-12-20T12:36:21;13.88;;;3.88;;
23181;SDS011;11759;51.282;6.642;2023-12-20T12:38:48;18.63;;;5.55;;
23181;SDS011;11759;51.282;6.642;2023-12-20T12:41:14;24.17;;;4.93;;
23181;SDS011;11759;51.282;6.642;2023-12-20T12:43:42;17.35;;;4.75;;
23181;SDS011;11759;51.282;6.642;2023-12-20T12:46:09;25.85;;;4.78;;
23181;SDS011;11759;51.282;6.642;2023-12-20T12:48:35;25.50;;;4.95;;
23181;SDS011;11759;51.282;6.642;2023-12-20T12:51:02;15.77;;;4.30;;
23181;SDS011;11759;51.282;6.642;2023-12-20T12:53:29;14.45;;;4.47;;
23181;SDS011;11759;51.282;6.642;2023-12-20T12:55:56;24.60;;;5.10;;
23181;SDS011;11759;51.282;6.642;2023-12-20T12:58:22;23.65;;;5.07;;
23181;SDS011;11759;51.282;6.642;2023-12-20T13:00:51;18.20;;;4.65;;
23181;SDS011;11759;51.282;6.642;2023-12-20T13:03:18;17.88;;;5.43;;
23181;SDS011;11759;51.282;6.642;2023-12-20T13:05:45;24.92;;;5.50;;
23181;SDS011;11759;51.282;6.642;2023-12-20T13:08:14;21.15;;;6.53;;
23181;SDS011;11759;51.282;6.642;2023-12-20T13:10:41;18.15;;;5.28;;
23181;SDS011;11759;51.282;6.642;2023-12-20T13:13:08;24.40;;;5.78;;
23181;SDS011;11759;51.282;6.642;2023-12-20T13:15:35;20.25;;;5.95;;
23181;SDS011;11759;51.282;6.642;2023-12-20T13:18:02;17.35;;;5.20;;
23181;SDS011;11759;51.282;6.642;2023-12-20T13:20:29;21.67;;;6.28;;
23181;SDS011;11759;51.282;6.642;2023-12-20T13:22:56;25.83;;;5.85;;
23181;SDS011;11759;51.282;6.642;2023-12-20T13:25:22;21.27;;;6.78;;
23181;SDS011;11759;51.282;6.642;2023-12-20T13:27:50;22.98;;;7.25;;
23181;SDS011;11759;51.282;6.642;2023-12-20T13:30:16;22.77;;;6.75;;
23181;SDS011;11759;51.282;6.642;2023-12-20T13:32:44;20.08;;;7.15;;
23181;SDS011;11759;51.282;6.642;2023-12-20T13:35:10;21.65;;;7.00;;
23181;SDS011;11759;51.282;6.642;2023-12-20T13:37:38;21.05;;;6.60;;
23181;SDS011;11759;51.282;6.642;2023-12-20T13:40:05;23.98;;;8.13;;
23181;SDS011;11759;51.282;6.642;2023-12-20T13:42:32;20.10;;;6.75;;
23181;SDS011;11759;51.282;6.642;2023-12-20T13:44:59;20.02;;;6.97;;
23181;SDS011;11759;51.282;6.642;2023-12-20T13:47:26;21.00;;;6.70;;
23181;SDS011;11759;51.282;6.642;2023-12-20T13:49:53;26.23;;;6.72;;
23181;SDS011;11759;51.282;6.642;2023-12-20T13:52:20;19.85;;;7.10;;
23181;SDS011;11759;51.282;6.642;2023-12-20T13:54:46;25.13;;;7.47;;
23181;SDS011;11759;51.282;6.642;2023-12-20T13:57:14;22.33;;;8.30;;
23181;SDS011;11759;51.282;6.642;2023-12-20T13:59:57;19.77;;;6.45;;
23181;SDS011;11759;51.282;6.642;2023-12-20T14:02:24;19.23;;;7.93;;
23181;SDS011;11759;51.282;6.642;2023-12-20T14:04:53;18.40;;;8.30;;
23181;SDS011;11759;51.282;6.642;2023-12-20T14:07:20;24.92;;;8.38;;
23181;SDS011;11759;51.282;6.642;2023-12-20T14:09:47;27.38;;;8.05;;
23181;SDS011;11759;51.282;6.642;2023-12-20T14:12:15;20.33;;;7.72;;
23181;SDS011;11759;51.282;6.642;2023-12-20T14:14:41;26.20;;;7.65;;
23181;SDS011;11759;51.282;6.642;2023-12-20T14:17:08;19.05;;;8.05;;
23181;SDS011;11759;51.282;6.642;2023-12-20T14:19:35;20.13;;;7.63;;
23181;SDS011;11759;51.282;6.642;2023-12-20T14:22:02;25.48;;;7.68;;
23181;SDS011;11759;51.282;6.642;2023-12-20T14:24:31;22.10;;;7.68;;
23181;SDS011;11759;51.282;6.642;2023-12-20T14:26:57;25.38;;;7.82;;
23181;SDS011;11759;51.282;6.642;2023-12-20T14:29:25;18.75;;;7.30;;
23181;SDS011;11759;51.282;6.642;2023-12-20T14:31:52;45.38;;;8.52;;
23181;SDS011;11759;51.282;6.642;2023-12-20T14:34:19;21.38;;;7.55;;
23181;SDS011;11759;51.282;6.642;2023-12-20T14:36:46;27.77;;;7.70;;
23181;SDS011;11759;51.282;6.642;2023-12-20T14:39:13;21.92;;;8.23;;